sensor_id;sensor_type;location;lat;lon;timestamp;temperature;humidity
13806;DHT22;6974;53.606;9.872;2023-09-18T00:01:08;20.10;99.90
13806;DHT22;6974;53.606;9.872;2023-09-18T00:03:35;20.10;99.90
13806;DHT22;6974;53.606;9.872;2023-09-18T00:06:02;20.00;99.90
13806;DHT22;6974;53.606;9.872;2023-09-18T00:08:32;20.00;99.90
13806;DHT22;6974;53.606;9.872;2023-09-18T00:10:58;20.00;99.90
13806;DHT22;6974;53.606;9.872;2023-09-18T00:13:27;19.90;99.90
13806;DHT22;6974;53.606;9.872;2023-09-18T00:15:55;19.90;99.90
13806;DHT22;6974;53.606;9.872;2023-09-18T00:18:25;19.90;99.90
13806;DHT22;6974;53.606;9.872;2023-09-18T00:20:52;19.90;99.90
13806;DHT22;6974;53.606;9.872;2023-09-18T00:23:19;19.90;99.90
13806;DHT22;6974;53.606;9.872;2023-09-18T00:25:46;19.80;99.90
13806;DHT22;6974;53.606;9.872;2023-09-18T00:28:13;19.80;99.90
13806;DHT22;6974;53.606;9.872;2023-09-18T00:30:50;19.80;99.90
13806;DHT22;6974;53.606;9.872;2023-09-18T00:33:17;19.90;99.90
13806;DHT22;6974;53.606;9.872;2023-09-18T00:35:46;19.90;99.90
13806;DHT22;6974;53.606;9.872;2023-09-18T00:38:15;19.90;99.90
13806;DHT22;6974;53.606;9.872;2023-09-18T00:40:43;19.80;99.90
13806;DHT22;6974;53.606;9.872;2023-09-18T00:43:10;19.90;99.90
13806;DHT22;6974;53.606;9.872;2023-09-18T00:45:41;19.80;99.90
13806;DHT22;6974;53.606;9.872;2023-09-18T00:48:11;19.80;99.90
13806;DHT22;6974;53.606;9.872;2023-09-18T00:50:38;19.90;99.90
13806;DHT22;6974;53.606;9.872;2023-09-18T00:53:07;19.90;99.90
13806;DHT22;6974;53.606;9.872;2023-09-18T00:55:36;19.90;99.90
13806;DHT22;6974;53.606;9.872;2023-09-18T00:58:05;19.90;99.90
13806;DHT22;6974;53.606;9.872;2023-09-18T01:00:34;19.80;99.90
13806;DHT22;6974;53.606;9.872;2023-09-18T01:03:01;19.70;99.90
13806;DHT22;6974;53.606;9.872;2023-09-18T01:05:32;19.70;99.90
13806;DHT22;6974;53.606;9.872;2023-09-18T01:07:59;19.70;99.90
13806;DHT22;6974;53.606;9.872;2023-09-18T01:10:29;19.70;99.90
13806;DHT22;6974;53.606;9.872;2023-09-18T01:13:04;19.70;99.90
13806;DHT22;6974;53.606;9.872;2023-09-18T01:15:36;19.70;99.90
13806;DHT22;6974;53.606;9.872;2023-09-18T01:18:08;19.70;99.90
13806;DHT22;6974;53.606;9.872;2023-09-18T01:20:37;19.70;99.90
13806;DHT22;6974;53.606;9.872;2023-09-18T01:23:05;19.60;99.90
13806;DHT22;6974;53.606;9.872;2023-09-18T01:25:33;19.60;99.90
13806;DHT22;6974;53.606;9.872;2023-09-18T01:28:00;19.60;99.90
13806;DHT22;6974;53.606;9.872;2023-09-18T01:30:27;19.60;99.90
13806;DHT22;6974;53.606;9.872;2023-09-18T01:32:54;19.60;99.90
13806;DHT22;6974;53.606;9.872;2023-09-18T01:35:24;19.60;99.90
13806;DHT22;6974;53.606;9.872;2023-09-18T01:37:55;19.60;99.90
13806;DHT22;6974;53.606;9.872;2023-09-18T01:40:25;19.60;99.90
13806;DHT22;6974;53.606;9.872;2023-09-18T01:42:52;19.60;99.90
13806;DHT22;6974;53.606;9.872;2023-09-18T01:45:19;19.60;99.90
13806;DHT22;6974;53.606;9.872;2023-09-18T01:47:46;19.60;99.90
13806;DHT22;6974;53.606;9.872;2023-09-18T01:50:15;19.60;99.90
13806;DHT22;6974;53.606;9.872;2023-09-18T01:52:43;19.60;99.90
13806;DHT22;6974;53.606;9.872;2023-09-18T01:55:12;19.60;99.90
13806;DHT22;6974;53.606;9.872;2023-09-18T01:57:41;19.60;99.90
13806;DHT22;6974;53.606;9.872;2023-09-18T02:00:08;19.60;99.90
13806;DHT22;6974;53.606;9.872;2023-09-18T02:02:36;19.60;99.90
13806;DHT22;6974;53.606;9.872;2023-09-18T02:05:03;19.60;99.90
13806;DHT22;6974;53.606;9.872;2023-09-18T02:07:31;19.60;99.90
13806;DHT22;6974;53.606;9.872;2023-09-18T02:09:58;19.60;99.90
13806;DHT22;6974;53.606;9.872;2023-09-18T02:12:25;19.50;99.90
13806;DHT22;6974;53.606;9.872;2023-09-18T02:14:54;19.50;99.90
13806;DHT22;6974;53.606;9.872;2023-09-18T02:17:22;19.40;99.90
13806;DHT22;6974;53.606;9.872;2023-09-18T02:19:50;19.40;99.90
13806;DHT22;6974;53.606;9.872;2023-09-18T02:22:18;19.40;99.90
13806;DHT22;6974;53.606;9.872;2023-09-18T02:24:45;19.40;99.90
13806;DHT22;6974;53.606;9.872;2023-09-18T02:27:12;19.40;99.90
13806;DHT22;6974;53.606;9.872;2023-09-18T02:29:39;19.40;99.90
13806;DHT22;6974;53.606;9.872;2023-09-18T02:32:07;19.40;99.90
13806;DHT22;6974;53.606;9.872;2023-09-18T02:34:35;19.40;99.90
13806;DHT22;6974;53.606;9.872;2023-09-18T02:37:02;19.30;99.90
13806;DHT22;6974;53.606;9.872;2023-09-18T02:39:29;19.40;99.90
13806;DHT22;6974;53.606;9.872;2023-09-18T02:41:56;19.40;99.90
13806;DHT22;6974;53.606;9.872;2023-09-18T02:44:23;19.40;99.90
13806;DHT22;6974;53.606;9.872;2023-09-18T02:46:50;19.30;99.90
13806;DHT22;6974;53.606;9.872;2023-09-18T02:49:19;19.40;99.90
13806;DHT22;6974;53.606;9.872;2023-09-18T02:51:46;19.40;99.90
13806;DHT22;6974;53.606;9.872;2023-09-18T02:54:17;19.40;99.90
13806;DHT22;6974;53.606;9.872;2023-09-18T02:56:43;19.40;99.90
13806;DHT22;6974;53.606;9.872;2023-09-18T02:59:10;19.40;99.90
13806;DHT22;6974;53.606;9.872;2023-09-18T03:01:37;19.30;99.90
13806;DHT22;6974;53.606;9.872;2023-09-18T03:04:05;19.40;99.90
13806;DHT22;6974;53.606;9.872;2023-09-18T03:06:34;19.30;99.90
13806;DHT22;6974;53.606;9.872;2023-09-18T03:09:04;19.30;99.90
13806;DHT22;6974;53.606;9.872;2023-09-18T03:11:32;19.30;99.90
13806;DHT22;6974;53.606;9.872;2023-09-18T03:13:59;19.30;99.90
13806;DHT22;6974;53.606;9.872;2023-09-18T03:16:26;19.30;99.90
13806;DHT22;6974;53.606;9.872;2023-09-18T03:18:53;19.20;99.90
13806;DHT22;6974;53.606;9.872;2023-09-18T03:21:20;19.20;99.90
13806;DHT22;6974;53.606;9.872;2023-09-18T03:23:49;19.20;99.90
13806;DHT22;6974;53.606;9.872;2023-09-18T03:26:17;19.20;99.90
13806;DHT22;6974;53.606;9.872;2023-09-18T03:28:44;19.20;99.90
13806;DHT22;6974;53.606;9.872;2023-09-18T03:31:11;19.20;99.90
13806;DHT22;6974;53.606;9.872;2023-09-18T03:33:38;19.20;99.90
13806;DHT22;6974;53.606;9.872;2023-09-18T03:36:05;19.20;99.90
13806;DHT22;6974;53.606;9.872;2023-09-18T03:38:33;19.20;99.90
13806;DHT22;6974;53.606;9.872;2023-09-18T03:41:02;19.20;99.90
13806;DHT22;6974;53.606;9.872;2023-09-18T03:43:29;19.20;99.90
13806;DHT22;6974;53.606;9.872;2023-09-18T03:46:03;19.20;99.90
13806;DHT22;6974;53.606;9.872;2023-09-18T03:48:30;19.20;99.90
13806;DHT22;6974;53.606;9.872;2023-09-18T03:51:03;19.20;99.90
13806;DHT22;6974;53.606;9.872;2023-09-18T03:53:32;19.20;99.90
13806;DHT22;6974;53.606;9.872;2023-09-18T03:55:59;19.20;99.90
13806;DHT22;6974;53.606;9.872;2023-09-18T03:58:27;19.30;99.90
13806;DHT22;6974;53.606;9.872;2023-09-18T04:00:56;19.30;99.90
13806;DHT22;6974;53.606;9.872;2023-09-18T04:03:24;19.30;99.90
13806;DHT22;6974;53.606;9.872;2023-09-18T04:05:51;19.20;99.90
13806;DHT22;6974;53.606;9.872;2023-09-18T04:08:18;19.20;99.90
13806;DHT22;6974;53.606;9.872;2023-09-18T04:10:47;19.20;99.90
13806;DHT22;6974;53.606;9.872;2023-09-18T04:13:14;19.20;99.90
13806;DHT22;6974;53.606;9.872;2023-09-18T04:15:43;19.20;99.90
13806;DHT22;6974;53.606;9.872;2023-09-18T04:18:11;19.20;99.90
13806;DHT22;6974;53.606;9.872;2023-09-18T04:20:38;19.20;99.90
13806;DHT22;6974;53.606;9.872;2023-09-18T04:23:22;19.10;99.90
13806;DHT22;6974;53.606;9.872;2023-09-18T04:25:50;19.10;99.90
13806;DHT22;6974;53.606;9.872;2023-09-18T04:28:19;19.10;99.90
13806;DHT22;6974;53.606;9.872;2023-09-18T04:30:48;19.10;99.90
13806;DHT22;6974;53.606;9.872;2023-09-18T04:33:16;19.10;99.90
13806;DHT22;6974;53.606;9.872;2023-09-18T04:35:44;19.20;99.90
13806;DHT22;6974;53.606;9.872;2023-09-18T04:38:11;19.10;99.90
13806;DHT22;6974;53.606;9.872;2023-09-18T04:40:40;19.10;99.90
13806;DHT22;6974;53.606;9.872;2023-09-18T04:43:07;19.10;99.90
13806;DHT22;6974;53.606;9.872;2023-09-18T04:45:34;19.20;99.90
13806;DHT22;6974;53.606;9.872;2023-09-18T04:48:02;19.10;99.90
13806;DHT22;6974;53.606;9.872;2023-09-18T04:50:31;19.10;99.90
13806;DHT22;6974;53.606;9.872;2023-09-18T04:52:59;19.10;99.90
13806;DHT22;6974;53.606;9.872;2023-09-18T04:55:29;19.10;99.90
13806;DHT22;6974;53.606;9.872;2023-09-18T04:57:56;19.10;99.90
13806;DHT22;6974;53.606;9.872;2023-09-18T05:00:24;19.10;99.90
13806;DHT22;6974;53.606;9.872;2023-09-18T05:02:52;19.10;99.90
13806;DHT22;6974;53.606;9.872;2023-09-18T05:05:21;19.10;99.90
13806;DHT22;6974;53.606;9.872;2023-09-18T05:07:48;19.00;99.90
13806;DHT22;6974;53.606;9.872;2023-09-18T05:10:15;19.00;99.90
13806;DHT22;6974;53.606;9.872;2023-09-18T05:12:42;19.00;99.90
13806;DHT22;6974;53.606;9.872;2023-09-18T05:15:09;19.00;99.90
13806;DHT22;6974;53.606;9.872;2023-09-18T05:17:42;19.00;99.90
13806;DHT22;6974;53.606;9.872;2023-09-18T05:20:10;19.00;99.90
13806;DHT22;6974;53.606;9.872;2023-09-18T05:22:41;19.00;99.90
13806;DHT22;6974;53.606;9.872;2023-09-18T05:25:09;19.10;99.90
13806;DHT22;6974;53.606;9.872;2023-09-18T05:27:37;19.00;99.90
13806;DHT22;6974;53.606;9.872;2023-09-18T05:30:11;19.10;99.90
13806;DHT22;6974;53.606;9.872;2023-09-18T05:32:39;19.20;99.90
13806;DHT22;6974;53.606;9.872;2023-09-18T05:35:07;19.10;99.90
13806;DHT22;6974;53.606;9.872;2023-09-18T05:37:36;19.20;99.90
13806;DHT22;6974;53.606;9.872;2023-09-18T05:40:07;19.20;99.90
13806;DHT22;6974;53.606;9.872;2023-09-18T05:42:35;19.20;99.90
13806;DHT22;6974;53.606;9.872;2023-09-18T05:45:03;19.20;99.90
13806;DHT22;6974;53.606;9.872;2023-09-18T05:47:32;19.20;99.90
13806;DHT22;6974;53.606;9.872;2023-09-18T05:49:59;19.20;99.90
13806;DHT22;6974;53.606;9.872;2023-09-18T05:52:26;19.20;99.90
13806;DHT22;6974;53.606;9.872;2023-09-18T05:54:52;19.20;99.90
13806;DHT22;6974;53.606;9.872;2023-09-18T06:00:45;19.30;99.90
13806;DHT22;6974;53.606;9.872;2023-09-18T06:03:12;19.30;99.90
13806;DHT22;6974;53.606;9.872;2023-09-18T06:05:41;19.40;99.90
13806;DHT22;6974;53.606;9.872;2023-09-18T06:08:08;19.40;99.90
13806;DHT22;6974;53.606;9.872;2023-09-18T06:10:35;19.40;99.90
13806;DHT22;6974;53.606;9.872;2023-09-18T06:13:03;19.50;99.90
13806;DHT22;6974;53.606;9.872;2023-09-18T06:15:32;19.50;99.90
13806;DHT22;6974;53.606;9.872;2023-09-18T06:18:00;19.50;99.90
13806;DHT22;6974;53.606;9.872;2023-09-18T06:20:28;19.60;99.90
13806;DHT22;6974;53.606;9.872;2023-09-18T06:22:56;19.60;99.90
13806;DHT22;6974;53.606;9.872;2023-09-18T06:25:23;19.70;99.90
13806;DHT22;6974;53.606;9.872;2023-09-18T06:27:51;19.70;99.90
13806;DHT22;6974;53.606;9.872;2023-09-18T06:30:18;19.80;99.90
13806;DHT22;6974;53.606;9.872;2023-09-18T06:32:45;19.80;99.90
13806;DHT22;6974;53.606;9.872;2023-09-18T06:35:13;19.80;99.90
13806;DHT22;6974;53.606;9.872;2023-09-18T06:37:41;19.90;99.90
13806;DHT22;6974;53.606;9.872;2023-09-18T06:40:09;19.90;99.90
13806;DHT22;6974;53.606;9.872;2023-09-18T06:42:36;19.90;99.90
13806;DHT22;6974;53.606;9.872;2023-09-18T06:45:05;20.00;99.90
13806;DHT22;6974;53.606;9.872;2023-09-18T06:47:33;20.00;99.90
13806;DHT22;6974;53.606;9.872;2023-09-18T06:50:00;20.00;99.90
13806;DHT22;6974;53.606;9.872;2023-09-18T06:52:31;20.00;99.90
13806;DHT22;6974;53.606;9.872;2023-09-18T06:54:58;20.00;99.90
13806;DHT22;6974;53.606;9.872;2023-09-18T06:57:28;20.00;99.90
13806;DHT22;6974;53.606;9.872;2023-09-18T06:59:55;20.00;99.90
13806;DHT22;6974;53.606;9.872;2023-09-18T07:02:22;20.10;99.90
13806;DHT22;6974;53.606;9.872;2023-09-18T07:04:49;20.10;99.90
13806;DHT22;6974;53.606;9.872;2023-09-18T07:07:16;20.20;99.90
13806;DHT22;6974;53.606;9.872;2023-09-18T07:09:51;20.20;99.90
13806;DHT22;6974;53.606;9.872;2023-09-18T07:12:18;20.20;99.90
13806;DHT22;6974;53.606;9.872;2023-09-18T07:14:47;20.20;99.90
13806;DHT22;6974;53.606;9.872;2023-09-18T07:17:19;20.30;99.90
13806;DHT22;6974;53.606;9.872;2023-09-18T07:19:46;20.30;99.90
13806;DHT22;6974;53.606;9.872;2023-09-18T07:22:14;20.30;99.90
13806;DHT22;6974;53.606;9.872;2023-09-18T07:24:41;20.40;99.90
13806;DHT22;6974;53.606;9.872;2023-09-18T07:27:12;20.50;99.90
13806;DHT22;6974;53.606;9.872;2023-09-18T07:29:39;20.50;99.90
13806;DHT22;6974;53.606;9.872;2023-09-18T07:32:05;20.60;99.90
13806;DHT22;6974;53.606;9.872;2023-09-18T07:34:32;20.60;99.90
13806;DHT22;6974;53.606;9.872;2023-09-18T07:37:00;20.70;99.90
13806;DHT22;6974;53.606;9.872;2023-09-18T07:39:27;20.70;99.90
13806;DHT22;6974;53.606;9.872;2023-09-18T07:41:55;20.70;99.90
13806;DHT22;6974;53.606;9.872;2023-09-18T07:44:23;20.80;99.90
13806;DHT22;6974;53.606;9.872;2023-09-18T07:46:50;20.80;99.90
13806;DHT22;6974;53.606;9.872;2023-09-18T07:49:18;20.80;99.90
13806;DHT22;6974;53.606;9.872;2023-09-18T07:51:45;20.80;99.90
13806;DHT22;6974;53.606;9.872;2023-09-18T07:54:14;20.80;99.90
13806;DHT22;6974;53.606;9.872;2023-09-18T07:56:42;20.90;99.90
13806;DHT22;6974;53.606;9.872;2023-09-18T07:59:09;20.90;99.90
13806;DHT22;6974;53.606;9.872;2023-09-18T08:01:38;21.00;99.90
13806;DHT22;6974;53.606;9.872;2023-09-18T08:04:05;21.00;99.90
13806;DHT22;6974;53.606;9.872;2023-09-18T08:06:32;21.00;99.90
13806;DHT22;6974;53.606;9.872;2023-09-18T08:09:00;21.10;99.90
13806;DHT22;6974;53.606;9.872;2023-09-18T08:11:27;21.10;99.90
13806;DHT22;6974;53.606;9.872;2023-09-18T08:13:55;21.20;99.90
13806;DHT22;6974;53.606;9.872;2023-09-18T08:16:22;21.20;99.90
13806;DHT22;6974;53.606;9.872;2023-09-18T08:18:50;21.20;99.90
13806;DHT22;6974;53.606;9.872;2023-09-18T08:21:18;21.20;99.90
13806;DHT22;6974;53.606;9.872;2023-09-18T08:23:45;21.10;99.90
13806;DHT22;6974;53.606;9.872;2023-09-18T08:26:13;21.10;99.90
13806;DHT22;6974;53.606;9.872;2023-09-18T08:28:40;21.20;99.90
13806;DHT22;6974;53.606;9.872;2023-09-18T08:31:09;21.10;99.90
13806;DHT22;6974;53.606;9.872;2023-09-18T08:33:36;21.20;99.90
13806;DHT22;6974;53.606;9.872;2023-09-18T08:38:39;21.10;99.90
13806;DHT22;6974;53.606;9.872;2023-09-18T08:41:09;21.00;99.90
13806;DHT22;6974;53.606;9.872;2023-09-18T08:43:40;21.00;99.90
13806;DHT22;6974;53.606;9.872;2023-09-18T08:46:08;21.00;99.90
13806;DHT22;6974;53.606;9.872;2023-09-18T08:48:38;20.90;99.90
13806;DHT22;6974;53.606;9.872;2023-09-18T08:51:06;20.90;99.90
13806;DHT22;6974;53.606;9.872;2023-09-18T08:53:35;20.90;99.90
13806;DHT22;6974;53.606;9.872;2023-09-18T08:56:04;20.90;99.90
13806;DHT22;6974;53.606;9.872;2023-09-18T08:58:33;20.90;99.90
13806;DHT22;6974;53.606;9.872;2023-09-18T09:01:03;21.00;99.90
13806;DHT22;6974;53.606;9.872;2023-09-18T09:03:32;21.00;99.90
13806;DHT22;6974;53.606;9.872;2023-09-18T09:06:00;21.00;99.90
13806;DHT22;6974;53.606;9.872;2023-09-18T09:08:27;21.00;99.90
13806;DHT22;6974;53.606;9.872;2023-09-18T09:10:54;21.10;99.90
13806;DHT22;6974;53.606;9.872;2023-09-18T09:13:25;21.10;99.90
13806;DHT22;6974;53.606;9.872;2023-09-18T09:15:53;21.10;99.90
13806;DHT22;6974;53.606;9.872;2023-09-18T09:18:22;21.20;99.90
13806;DHT22;6974;53.606;9.872;2023-09-18T09:20:56;21.20;99.90
13806;DHT22;6974;53.606;9.872;2023-09-18T09:23:25;21.30;99.90
13806;DHT22;6974;53.606;9.872;2023-09-18T09:25:52;21.50;99.90
13806;DHT22;6974;53.606;9.872;2023-09-18T09:28:31;21.60;99.90
13806;DHT22;6974;53.606;9.872;2023-09-18T09:31:02;21.80;99.90
13806;DHT22;6974;53.606;9.872;2023-09-18T09:33:30;22.00;99.90
13806;DHT22;6974;53.606;9.872;2023-09-18T09:35:57;22.10;99.90
13806;DHT22;6974;53.606;9.872;2023-09-18T09:38:30;22.30;99.90
13806;DHT22;6974;53.606;9.872;2023-09-18T09:40:59;22.30;99.90
13806;DHT22;6974;53.606;9.872;2023-09-18T09:43:29;22.40;99.90
13806;DHT22;6974;53.606;9.872;2023-09-18T09:45:59;22.50;99.90
13806;DHT22;6974;53.606;9.872;2023-09-18T09:48:30;22.60;99.90
13806;DHT22;6974;53.606;9.872;2023-09-18T09:51:00;22.60;99.90
13806;DHT22;6974;53.606;9.872;2023-09-18T09:53:43;22.70;99.90
13806;DHT22;6974;53.606;9.872;2023-09-18T09:56:12;22.70;99.90
13806;DHT22;6974;53.606;9.872;2023-09-18T09:59:00;22.70;99.90
13806;DHT22;6974;53.606;9.872;2023-09-18T10:01:31;22.70;99.90
13806;DHT22;6974;53.606;9.872;2023-09-18T10:03:59;22.60;99.90
13806;DHT22;6974;53.606;9.872;2023-09-18T10:06:27;22.60;99.90
13806;DHT22;6974;53.606;9.872;2023-09-18T10:08:57;22.50;99.90
13806;DHT22;6974;53.606;9.872;2023-09-18T10:11:26;22.50;99.90
13806;DHT22;6974;53.606;9.872;2023-09-18T10:13:59;22.50;99.90
13806;DHT22;6974;53.606;9.872;2023-09-18T10:16:31;22.60;99.90
13806;DHT22;6974;53.606;9.872;2023-09-18T10:19:06;22.60;99.90
13806;DHT22;6974;53.606;9.872;2023-09-18T10:21:41;22.60;99.90
13806;DHT22;6974;53.606;9.872;2023-09-18T10:24:14;22.60;99.90
13806;DHT22;6974;53.606;9.872;2023-09-18T10:26:50;22.50;99.90
13806;DHT22;6974;53.606;9.872;2023-09-18T10:29:19;22.50;99.90
13806;DHT22;6974;53.606;9.872;2023-09-18T10:31:48;22.60;99.90
13806;DHT22;6974;53.606;9.872;2023-09-18T10:34:18;22.70;99.90
13806;DHT22;6974;53.606;9.872;2023-09-18T10:36:48;22.70;99.90
13806;DHT22;6974;53.606;9.872;2023-09-18T10:39:16;22.70;99.90
13806;DHT22;6974;53.606;9.872;2023-09-18T10:41:47;22.60;99.90
13806;DHT22;6974;53.606;9.872;2023-09-18T10:44:14;22.60;99.90
13806;DHT22;6974;53.606;9.872;2023-09-18T10:46:45;22.70;99.90
13806;DHT22;6974;53.606;9.872;2023-09-18T10:49:22;22.70;99.90
13806;DHT22;6974;53.606;9.872;2023-09-18T10:51:49;22.70;99.90
13806;DHT22;6974;53.606;9.872;2023-09-18T10:54:21;22.80;99.90
13806;DHT22;6974;53.606;9.872;2023-09-18T10:56:49;22.90;99.90
13806;DHT22;6974;53.606;9.872;2023-09-18T10:59:16;23.00;99.90
13806;DHT22;6974;53.606;9.872;2023-09-18T11:01:44;23.00;99.90
13806;DHT22;6974;53.606;9.872;2023-09-18T11:04:19;23.10;99.90
13806;DHT22;6974;53.606;9.872;2023-09-18T11:07:13;23.10;99.90
13806;DHT22;6974;53.606;9.872;2023-09-18T11:09:46;23.10;99.90
13806;DHT22;6974;53.606;9.872;2023-09-18T11:12:16;23.30;99.90
13806;DHT22;6974;53.606;9.872;2023-09-18T11:14:46;23.40;99.90
13806;DHT22;6974;53.606;9.872;2023-09-18T11:17:34;23.50;99.90
13806;DHT22;6974;53.606;9.872;2023-09-18T11:20:05;23.50;99.90
13806;DHT22;6974;53.606;9.872;2023-09-18T11:22:35;23.50;99.90
13806;DHT22;6974;53.606;9.872;2023-09-18T11:25:31;23.40;99.90
13806;DHT22;6974;53.606;9.872;2023-09-18T11:28:03;23.30;99.90
13806;DHT22;6974;53.606;9.872;2023-09-18T11:30:33;23.30;99.90
13806;DHT22;6974;53.606;9.872;2023-09-18T11:33:03;23.30;99.90
13806;DHT22;6974;53.606;9.872;2023-09-18T11:35:32;23.30;99.90
13806;DHT22;6974;53.606;9.872;2023-09-18T11:38:07;23.40;99.90
13806;DHT22;6974;53.606;9.872;2023-09-18T11:40:36;23.30;99.90
13806;DHT22;6974;53.606;9.872;2023-09-18T11:43:20;23.30;99.90
13806;DHT22;6974;53.606;9.872;2023-09-18T11:45:51;23.30;99.90
13806;DHT22;6974;53.606;9.872;2023-09-18T11:48:19;23.20;99.90
13806;DHT22;6974;53.606;9.872;2023-09-18T11:50:53;23.20;99.90
13806;DHT22;6974;53.606;9.872;2023-09-18T11:53:20;23.30;99.90
13806;DHT22;6974;53.606;9.872;2023-09-18T11:55:48;23.20;99.90
13806;DHT22;6974;53.606;9.872;2023-09-18T11:58:17;23.20;99.90
13806;DHT22;6974;53.606;9.872;2023-09-18T12:00:48;23.20;99.90
13806;DHT22;6974;53.606;9.872;2023-09-18T12:03:17;23.20;99.90
13806;DHT22;6974;53.606;9.872;2023-09-18T12:05:57;23.10;99.90
13806;DHT22;6974;53.606;9.872;2023-09-18T12:08:26;23.10;99.90
13806;DHT22;6974;53.606;9.872;2023-09-18T12:10:53;23.10;99.90
13806;DHT22;6974;53.606;9.872;2023-09-18T12:13:21;23.00;99.90
13806;DHT22;6974;53.606;9.872;2023-09-18T12:15:48;23.10;99.90
13806;DHT22;6974;53.606;9.872;2023-09-18T12:18:17;23.10;99.90
13806;DHT22;6974;53.606;9.872;2023-09-18T12:20:48;23.10;99.90
13806;DHT22;6974;53.606;9.872;2023-09-18T12:23:17;23.10;99.90
13806;DHT22;6974;53.606;9.872;2023-09-18T12:25:47;23.10;99.90
13806;DHT22;6974;53.606;9.872;2023-09-18T12:28:15;23.10;99.90
13806;DHT22;6974;53.606;9.872;2023-09-18T12:30:42;23.00;99.90
13806;DHT22;6974;53.606;9.872;2023-09-18T12:33:12;23.10;99.90
13806;DHT22;6974;53.606;9.872;2023-09-18T12:35:40;23.20;99.90
13806;DHT22;6974;53.606;9.872;2023-09-18T12:38:17;23.20;99.90
13806;DHT22;6974;53.606;9.872;2023-09-18T12:40:48;23.20;99.90
13806;DHT22;6974;53.606;9.872;2023-09-18T12:43:16;23.20;99.90
13806;DHT22;6974;53.606;9.872;2023-09-18T12:45:45;23.30;99.90
13806;DHT22;6974;53.606;9.872;2023-09-18T12:48:13;23.30;99.90
13806;DHT22;6974;53.606;9.872;2023-09-18T12:50:40;23.30;99.90
13806;DHT22;6974;53.606;9.872;2023-09-18T12:53:09;23.30;99.90
13806;DHT22;6974;53.606;9.872;2023-09-18T12:55:38;23.40;99.90
13806;DHT22;6974;53.606;9.872;2023-09-18T12:58:06;23.50;99.90
13806;DHT22;6974;53.606;9.872;2023-09-18T13:00:35;23.60;99.90
13806;DHT22;6974;53.606;9.872;2023-09-18T13:03:03;23.60;99.90
13806;DHT22;6974;53.606;9.872;2023-09-18T13:05:31;23.70;99.90
13806;DHT22;6974;53.606;9.872;2023-09-18T13:08:05;23.90;99.90
13806;DHT22;6974;53.606;9.872;2023-09-18T13:10:43;23.90;99.90
13806;DHT22;6974;53.606;9.872;2023-09-18T13:13:16;23.80;99.90
13806;DHT22;6974;53.606;9.872;2023-09-18T13:15:47;23.80;99.90
13806;DHT22;6974;53.606;9.872;2023-09-18T13:18:16;23.80;99.90
13806;DHT22;6974;53.606;9.872;2023-09-18T13:20:45;23.70;99.90
13806;DHT22;6974;53.606;9.872;2023-09-18T13:23:12;23.60;99.90
13806;DHT22;6974;53.606;9.872;2023-09-18T13:25:42;23.60;99.90
13806;DHT22;6974;53.606;9.872;2023-09-18T13:28:12;23.50;99.90
13806;DHT22;6974;53.606;9.872;2023-09-18T13:30:40;23.40;99.90
13806;DHT22;6974;53.606;9.872;2023-09-18T13:33:09;23.40;99.90
13806;DHT22;6974;53.606;9.872;2023-09-18T13:35:38;23.40;99.90
13806;DHT22;6974;53.606;9.872;2023-09-18T13:38:07;23.40;99.90
13806;DHT22;6974;53.606;9.872;2023-09-18T13:40:35;23.40;99.90
13806;DHT22;6974;53.606;9.872;2023-09-18T13:43:05;23.30;99.90
13806;DHT22;6974;53.606;9.872;2023-09-18T13:45:32;23.40;99.90
13806;DHT22;6974;53.606;9.872;2023-09-18T13:48:01;23.30;99.90
13806;DHT22;6974;53.606;9.872;2023-09-18T13:50:28;23.30;99.90
13806;DHT22;6974;53.606;9.872;2023-09-18T13:52:55;23.40;99.90
13806;DHT22;6974;53.606;9.872;2023-09-18T13:55:22;23.40;99.90
13806;DHT22;6974;53.606;9.872;2023-09-18T13:57:50;23.40;99.90
13806;DHT22;6974;53.606;9.872;2023-09-18T14:00:19;23.30;99.90
13806;DHT22;6974;53.606;9.872;2023-09-18T14:02:46;23.30;99.90
13806;DHT22;6974;53.606;9.872;2023-09-18T14:05:13;23.20;99.90
13806;DHT22;6974;53.606;9.872;2023-09-18T14:07:40;23.20;99.90
13806;DHT22;6974;53.606;9.872;2023-09-18T14:10:09;23.20;99.90
13806;DHT22;6974;53.606;9.872;2023-09-18T14:12:36;23.10;99.90
13806;DHT22;6974;53.606;9.872;2023-09-18T14:15:05;23.10;99.90
13806;DHT22;6974;53.606;9.872;2023-09-18T14:17:34;23.10;99.90
13806;DHT22;6974;53.606;9.872;2023-09-18T14:20:01;23.10;99.90
13806;DHT22;6974;53.606;9.872;2023-09-18T14:22:32;23.10;99.90
13806;DHT22;6974;53.606;9.872;2023-09-18T14:25:00;23.10;99.90
13806;DHT22;6974;53.606;9.872;2023-09-18T14:27:29;23.20;99.90
13806;DHT22;6974;53.606;9.872;2023-09-18T14:29:56;23.10;99.90
13806;DHT22;6974;53.606;9.872;2023-09-18T14:32:23;23.20;99.90
13806;DHT22;6974;53.606;9.872;2023-09-18T14:34:53;23.30;99.90
13806;DHT22;6974;53.606;9.872;2023-09-18T14:37:20;23.30;99.90
13806;DHT22;6974;53.606;9.872;2023-09-18T14:39:46;23.40;99.90
13806;DHT22;6974;53.606;9.872;2023-09-18T14:42:13;23.50;99.90
13806;DHT22;6974;53.606;9.872;2023-09-18T14:44:40;23.50;99.90
13806;DHT22;6974;53.606;9.872;2023-09-18T14:47:10;23.40;99.90
13806;DHT22;6974;53.606;9.872;2023-09-18T14:49:37;23.30;99.90
13806;DHT22;6974;53.606;9.872;2023-09-18T14:52:05;23.40;99.90
13806;DHT22;6974;53.606;9.872;2023-09-18T14:54:33;23.40;99.90
13806;DHT22;6974;53.606;9.872;2023-09-18T14:57:00;23.40;99.90
13806;DHT22;6974;53.606;9.872;2023-09-18T14:59:29;23.30;99.90
13806;DHT22;6974;53.606;9.872;2023-09-18T15:01:55;23.30;99.90
13806;DHT22;6974;53.606;9.872;2023-09-18T15:04:23;23.40;99.90
13806;DHT22;6974;53.606;9.872;2023-09-18T15:06:49;23.30;99.90
13806;DHT22;6974;53.606;9.872;2023-09-18T15:09:18;23.30;99.90
13806;DHT22;6974;53.606;9.872;2023-09-18T15:11:44;23.30;99.90
13806;DHT22;6974;53.606;9.872;2023-09-18T15:14:11;23.30;99.90
13806;DHT22;6974;53.606;9.872;2023-09-18T15:16:38;23.30;99.90
13806;DHT22;6974;53.606;9.872;2023-09-18T15:19:05;23.30;99.90
13806;DHT22;6974;53.606;9.872;2023-09-18T15:21:33;23.30;99.90
13806;DHT22;6974;53.606;9.872;2023-09-18T15:24:02;23.30;99.90
13806;DHT22;6974;53.606;9.872;2023-09-18T15:26:30;23.40;99.90
13806;DHT22;6974;53.606;9.872;2023-09-18T15:28:57;23.40;99.90
13806;DHT22;6974;53.606;9.872;2023-09-18T15:31:25;23.50;99.90
13806;DHT22;6974;53.606;9.872;2023-09-18T15:33:52;23.50;99.90
13806;DHT22;6974;53.606;9.872;2023-09-18T15:36:20;23.60;99.90
13806;DHT22;6974;53.606;9.872;2023-09-18T15:38:48;23.50;99.90
13806;DHT22;6974;53.606;9.872;2023-09-18T15:41:15;23.50;99.90
13806;DHT22;6974;53.606;9.872;2023-09-18T15:43:43;23.40;99.90
13806;DHT22;6974;53.606;9.872;2023-09-18T15:46:12;23.50;99.90
13806;DHT22;6974;53.606;9.872;2023-09-18T15:48:40;23.50;99.90
13806;DHT22;6974;53.606;9.872;2023-09-18T15:51:07;23.50;99.90
13806;DHT22;6974;53.606;9.872;2023-09-18T15:53:35;23.50;99.90
13806;DHT22;6974;53.606;9.872;2023-09-18T15:56:02;23.30;99.90
13806;DHT22;6974;53.606;9.872;2023-09-18T15:58:29;23.30;99.90
13806;DHT22;6974;53.606;9.872;2023-09-18T16:00:57;23.30;99.90